Main page
METAR-TAF:

METAR-TAF

Airports :

RAF Leeming

Leeming, England

latitude: 54-18N, longitude: 001-32W, elevation: 40 m

Current weather observation

The report was made 35 minutes ago, at 19:20 UTC
Wind 10 kt from the South/Southeast
Temperature 9°C
Humidity 87%
Pressure 1004 hPa
Visibility 10 km or more
light rain,

METAR: EGXE 281920Z AUTO 15010KT 9999 -RA OVC011/// 09/07 Q1004

Time: 19:55 (19:55 UTC)

Forecast

The report was made 6 hours and 31 minutes ago, at 13:24 UTC
Forecast valid from 28 at 15 UTC to 28 at 19 UTC
Wind 13 kt from the South
Visibility 10 km or more
Broken clouds at a height of 1800 ft
Temporary
from 28 at 15 UTC to 28 at 19 UTC
Broken clouds at a height of 1000 ft
Probability 30% :
Temporary
from 28 at 15 UTC to 28 at 19 UTC
Visibility: 4000 m
light rain, drizzle
Probability 30% :
Temporary
from 28 at 17 UTC to 28 at 19 UTC
Broken clouds at a height of 500 ft

TAF: EGXE 281324Z 2815/2819 17013KT 9999 BKN018 TEMPO 2815/2819 BKN010 PROB30 TEMPO 2815/2819 4000 -RADZ PROB30 TEMPO 2817/2819 BKN005

Weather observations and forecasts of more than 4000 airports (METAR and TAF reports).

The available stations are represented by yellow and red dots on the map.

Hover mouse over dot to see the name of the station.

Then click to see weather observations and forecasts.

To change the map : click on the green buttons with a black cross to zoom in, on the green button with a dash to zoom out, or on the green arrows for adjacent maps.


METAR-TAF: